createdAt,value
2022-12-03T00:02:21.174Z,17.40
2022-12-03T00:04:47.978Z,16.52
2022-12-03T00:07:14.676Z,17.83
2022-12-03T00:09:41.597Z,16.98
2022-12-03T00:12:08.596Z,16.65
2022-12-03T00:14:37.815Z,17.50
2022-12-03T00:17:08.028Z,16.55
2022-12-03T00:19:34.956Z,16.25
2022-12-03T00:22:01.605Z,15.23
2022-12-03T00:24:28.273Z,15.38
2022-12-03T00:26:55.210Z,14.40
2022-12-03T00:29:21.951Z,15.07
2022-12-03T00:31:48.774Z,14.25
2022-12-03T00:34:15.441Z,15.40
2022-12-03T00:36:42.244Z,15.25
2022-12-03T00:39:08.911Z,15.00
2022-12-03T00:41:36.249Z,14.80
2022-12-03T00:44:03.030Z,15.38
2022-12-03T00:46:29.811Z,15.20
2022-12-03T00:48:56.541Z,15.93
2022-12-03T00:51:23.271Z,15.73
2022-12-03T00:53:50.074Z,15.18
2022-12-03T00:56:16.985Z,15.32
2022-12-03T00:58:43.665Z,15.60
2022-12-03T01:01:10.341Z,15.40
2022-12-03T01:03:37.102Z,15.48
2022-12-03T01:06:04.396Z,15.00
2022-12-03T01:08:31.139Z,13.98
2022-12-03T01:10:57.806Z,14.35
2022-12-03T01:13:24.491Z,14.02
2022-12-03T01:15:51.260Z,14.07
2022-12-03T01:18:18.043Z,14.32
2022-12-03T01:20:45.003Z,15.15
2022-12-03T01:23:11.729Z,14.32
2022-12-03T01:25:38.487Z,14.65
2022-12-03T01:28:05.256Z,14.43
2022-12-03T01:30:51.984Z,14.30
2022-12-03T01:33:18.890Z,14.98
2022-12-03T01:35:45.595Z,16.08
2022-12-03T01:38:12.308Z,14.77
2022-12-03T01:40:39.348Z,15.20
2022-12-03T01:43:06.030Z,15.32
2022-12-03T01:45:32.730Z,15.35
2022-12-03T01:47:59.674Z,15.93
2022-12-03T01:50:31.782Z,15.20
2022-12-03T01:53:01.862Z,14.82
2022-12-03T01:55:29.231Z,14.00
2022-12-03T01:58:05.588Z,14.48
2022-12-03T02:00:32.626Z,13.32
2022-12-03T02:03:07.968Z,14.10
2022-12-03T02:05:34.806Z,13.65
2022-12-03T02:08:01.816Z,15.13
2022-12-03T02:10:34.279Z,14.48
2022-12-03T02:13:09.757Z,14.85
2022-12-03T02:15:39.094Z,14.88
2022-12-03T02:18:07.204Z,14.75
2022-12-03T02:20:39.174Z,14.95
2022-12-03T02:23:22.886Z,14.23
2022-12-03T02:25:49.799Z,13.38
2022-12-03T02:28:16.538Z,14.05
2022-12-03T02:30:43.352Z,13.48
2022-12-03T02:33:10.412Z,14.52
2022-12-03T02:35:38.332Z,14.50
2022-12-03T02:38:19.919Z,14.18
2022-12-03T02:40:49.146Z,14.48
2022-12-03T02:43:17.735Z,14.35
2022-12-03T02:45:51.544Z,13.93
2022-12-03T02:48:22.188Z,15.27
2022-12-03T02:50:55.454Z,14.80
2022-12-03T02:53:30.940Z,14.43
2022-12-03T02:55:59.556Z,14.90
2022-12-03T02:58:29.560Z,14.98
2022-12-03T03:00:56.955Z,14.65
2022-12-03T03:03:26.096Z,15.93
2022-12-03T03:05:53.698Z,14.75
2022-12-03T03:08:20.704Z,13.65
2022-12-03T03:10:47.774Z,15.52
2022-12-03T03:13:17.629Z,14.98
2022-12-03T03:15:44.949Z,15.70
2022-12-03T03:18:13.438Z,15.15
2022-12-03T03:20:41.104Z,15.25
2022-12-03T03:23:10.938Z,15.90
2022-12-03T03:25:39.593Z,15.90
2022-12-03T03:28:07.445Z,16.27
2022-12-03T03:30:35.705Z,15.57
2022-12-03T03:33:02.564Z,15.85
2022-12-03T03:35:29.301Z,14.90
2022-12-03T03:37:58.735Z,16.27
2022-12-03T03:40:26.512Z,15.57
2022-12-03T03:42:53.758Z,16.08
2022-12-03T03:45:27.177Z,15.50
2022-12-03T03:47:57.323Z,15.65
2022-12-03T03:50:24.768Z,16.27
2022-12-03T03:52:51.780Z,16.10
2022-12-03T03:55:20.450Z,15.93
2022-12-03T03:57:48.259Z,16.38
2022-12-03T04:00:15.374Z,15.98
2022-12-03T04:02:42.865Z,15.73
2022-12-03T04:05:19.144Z,14.50
2022-12-03T04:07:45.958Z,14.20
2022-12-03T04:10:33.867Z,14.70
2022-12-03T04:13:01.181Z,14.25
2022-12-03T04:15:28.254Z,15.32
2022-12-03T04:18:14.125Z,14.02
2022-12-03T04:20:40.982Z,14.10
2022-12-03T04:23:07.708Z,14.25
2022-12-03T04:26:03.835Z,14.73
2022-12-03T04:28:49.229Z,14.52
2022-12-03T04:31:35.693Z,14.07
2022-12-03T04:34:25.461Z,14.05
2022-12-03T04:36:52.300Z,14.63
2022-12-03T04:39:19.280Z,14.50
2022-12-03T04:41:46.140Z,14.75
2022-12-03T04:44:31.500Z,13.65
2022-12-03T04:46:58.259Z,13.77
2022-12-03T04:49:25.120Z,13.88
2022-12-03T04:51:52.099Z,14.02
2022-12-03T04:54:18.926Z,14.43
2022-12-03T04:56:46.077Z,12.98
2022-12-03T04:59:16.276Z,13.23
2022-12-03T05:01:44.528Z,13.80
2022-12-03T05:04:12.233Z,13.88
2022-12-03T05:06:39.233Z,14.15
2022-12-03T05:09:05.918Z,14.55
2022-12-03T05:11:32.657Z,14.60
2022-12-03T05:13:59.573Z,15.98
2022-12-03T05:16:26.315Z,15.48
2022-12-03T05:18:53.148Z,16.15
2022-12-03T05:21:20.194Z,15.32
2022-12-03T05:23:46.906Z,16.05
2022-12-03T05:26:13.673Z,15.27
2022-12-03T05:28:40.394Z,15.18
2022-12-03T05:31:07.340Z,15.60
2022-12-03T05:33:35.588Z,15.93
2022-12-03T05:36:04.224Z,15.77
2022-12-03T05:38:30.942Z,15.85
2022-12-03T05:40:57.897Z,16.48
2022-12-03T05:43:24.787Z,15.90
2022-12-03T05:45:51.573Z,15.75
2022-12-03T05:48:18.412Z,15.13
2022-12-03T05:50:46.170Z,14.13
2022-12-03T05:53:13.728Z,15.07
2022-12-03T05:55:40.456Z,15.27
2022-12-03T05:58:07.460Z,15.38
2022-12-03T06:00:42.329Z,15.00
2022-12-03T06:03:09.894Z,14.30
2022-12-03T06:05:36.814Z,14.43
2022-12-03T06:08:03.802Z,14.38
2022-12-03T06:10:30.740Z,15.15
2022-12-03T06:12:57.809Z,15.65
2022-12-03T06:15:24.788Z,14.13
2022-12-03T06:17:51.640Z,15.13
2022-12-03T06:20:20.465Z,14.02
2022-12-03T06:22:48.130Z,14.60
2022-12-03T06:25:16.000Z,14.85
2022-12-03T06:27:43.049Z,15.02
2022-12-03T06:30:12.395Z,15.52
2022-12-03T06:32:39.148Z,15.25
2022-12-03T06:35:06.134Z,15.02
2022-12-03T06:37:32.850Z,15.35
2022-12-03T06:39:59.578Z,14.82
2022-12-03T06:42:26.255Z,14.88
2022-12-03T06:44:53.359Z,14.68
2022-12-03T06:47:20.179Z,15.60
2022-12-03T06:49:47.118Z,16.50
2022-12-03T06:52:13.888Z,15.88
2022-12-03T06:54:40.615Z,15.57
2022-12-03T06:57:07.349Z,15.32
2022-12-03T06:59:35.786Z,16.58
2022-12-03T07:02:02.745Z,16.08
2022-12-03T07:04:29.503Z,14.57
2022-12-03T07:06:56.375Z,14.68
2022-12-03T07:09:23.459Z,15.57
2022-12-03T07:11:50.518Z,15.20
2022-12-03T07:14:17.452Z,14.82
2022-12-03T07:16:44.398Z,14.90
2022-12-03T07:19:11.497Z,15.35
2022-12-03T07:21:38.700Z,15.27
2022-12-03T07:24:06.231Z,14.82
2022-12-03T07:26:33.499Z,14.32
2022-12-03T07:29:00.389Z,13.75
2022-12-03T07:31:27.423Z,14.52
2022-12-03T07:33:54.275Z,14.40
2022-12-03T07:36:21.079Z,13.90
2022-12-03T07:38:47.977Z,14.93
2022-12-03T07:41:14.732Z,14.05
2022-12-03T07:43:41.502Z,13.68
2022-12-03T07:46:08.858Z,13.45
2022-12-03T07:48:35.654Z,14.27
2022-12-03T07:51:02.572Z,14.30
2022-12-03T07:53:29.381Z,14.55
2022-12-03T07:55:56.109Z,14.80
2022-12-03T07:58:22.889Z,14.30
2022-12-03T08:00:49.761Z,13.13
2022-12-03T08:03:16.546Z,14.85
2022-12-03T08:05:43.273Z,15.00
2022-12-03T08:08:10.036Z,15.45
2022-12-03T08:10:36.917Z,15.40
2022-12-03T08:13:10.898Z,15.00
2022-12-03T08:15:39.645Z,15.68
2022-12-03T08:18:33.021Z,14.82
2022-12-03T08:20:59.880Z,15.98
2022-12-03T08:23:26.683Z,15.57
2022-12-03T08:25:53.664Z,15.75
2022-12-03T08:28:23.536Z,15.15
2022-12-03T08:31:13.680Z,15.23
2022-12-03T08:33:41.875Z,15.27
2022-12-03T08:36:14.040Z,15.98
2022-12-03T08:38:40.884Z,16.15
2022-12-03T08:41:14.397Z,14.85
2022-12-03T08:43:44.635Z,14.37
2022-12-03T08:46:19.053Z,14.50
2022-12-03T08:48:48.978Z,14.20
2022-12-03T08:51:25.494Z,14.52
2022-12-03T08:54:01.867Z,14.20
2022-12-03T08:56:32.978Z,14.50
2022-12-03T08:59:14.748Z,13.77
2022-12-03T09:01:47.357Z,13.65
2022-12-03T09:04:41.188Z,13.90
2022-12-03T09:07:08.045Z,13.48
2022-12-03T09:09:35.114Z,14.00
2022-12-03T09:12:02.386Z,13.77
2022-12-03T09:14:29.185Z,13.57
2022-12-03T09:16:56.740Z,14.00
2022-12-03T09:19:25.642Z,14.32
2022-12-03T09:21:53.802Z,13.52
2022-12-03T09:24:20.848Z,13.38
2022-12-03T09:26:47.596Z,14.90
2022-12-03T09:29:14.431Z,14.43
2022-12-03T09:31:41.732Z,14.10
2022-12-03T09:34:08.556Z,13.73
2022-12-03T09:36:35.405Z,15.15
2022-12-03T09:39:02.340Z,14.88
2022-12-03T09:41:29.150Z,14.57
2022-12-03T09:44:05.290Z,15.88
2022-12-03T09:46:35.215Z,14.82
2022-12-03T09:49:03.460Z,14.48
2022-12-03T09:51:34.935Z,14.73
2022-12-03T09:54:04.498Z,14.85
2022-12-03T09:56:31.835Z,14.43
2022-12-03T09:58:59.151Z,14.73
2022-12-03T10:01:30.151Z,14.43
2022-12-03T10:03:58.445Z,14.00
2022-12-03T10:06:25.274Z,13.80
2022-12-03T10:08:55.319Z,13.65
2022-12-03T10:11:25.105Z,12.48
2022-12-03T10:13:56.279Z,12.93
2022-12-03T10:16:23.660Z,12.35
2022-12-03T10:18:56.329Z,11.88
2022-12-03T10:21:36.459Z,12.77
2022-12-03T10:24:23.128Z,11.90
2022-12-03T10:26:52.302Z,12.13
2022-12-03T10:29:20.398Z,11.77
2022-12-03T10:32:08.058Z,11.75
2022-12-03T10:34:40.815Z,11.43
2022-12-03T10:37:14.151Z,11.95
2022-12-03T10:39:57.754Z,11.73
2022-12-03T10:42:29.997Z,11.57
2022-12-03T10:45:18.721Z,11.77
2022-12-03T10:48:07.026Z,10.60
2022-12-03T10:50:35.116Z,10.75
2022-12-03T10:53:02.221Z,10.93
2022-12-03T10:55:34.163Z,10.93
2022-12-03T10:58:00.927Z,10.40
2022-12-03T11:00:27.816Z,10.63
2022-12-03T11:02:56.957Z,10.93
2022-12-03T11:05:27.468Z,11.98
2022-12-03T11:07:54.980Z,11.00
2022-12-03T11:10:22.066Z,10.43
2022-12-03T11:13:26.205Z,10.52
2022-12-03T11:15:53.459Z,10.55
2022-12-03T11:18:38.649Z,10.00
2022-12-03T11:21:13.649Z,10.90
2022-12-03T11:23:46.576Z,10.30
2022-12-03T11:26:26.794Z,9.70
2022-12-03T11:28:56.180Z,10.90
2022-12-03T11:31:41.822Z,10.63
2022-12-03T11:34:21.056Z,10.93
2022-12-03T11:37:09.843Z,10.82
2022-12-03T11:39:52.122Z,10.25
2022-12-03T11:42:28.458Z,10.95
2022-12-03T11:45:04.796Z,10.88
2022-12-03T11:48:02.518Z,11.02
2022-12-03T11:50:36.125Z,11.25
2022-12-03T11:53:20.268Z,11.55
2022-12-03T11:55:53.193Z,11.30
2022-12-03T11:58:25.941Z,10.82
2022-12-03T12:00:55.515Z,11.07
2022-12-03T12:03:26.965Z,10.55
2022-12-03T12:06:13.349Z,10.73
2022-12-03T12:08:54.635Z,11.43
2022-12-03T12:11:26.853Z,12.50
2022-12-03T12:13:56.324Z,11.55
2022-12-03T12:16:46.245Z,12.35
2022-12-03T12:19:35.754Z,12.15
2022-12-03T12:22:25.258Z,11.57
2022-12-03T12:24:53.122Z,12.02
2022-12-03T12:27:24.449Z,11.82
2022-12-03T12:29:58.172Z,10.82
2022-12-03T12:32:28.140Z,10.75
2022-12-03T12:35:13.614Z,11.23
2022-12-03T12:37:59.514Z,10.20
2022-12-03T12:40:30.011Z,11.15
2022-12-03T12:42:59.929Z,11.38
2022-12-03T12:45:29.591Z,11.82
2022-12-03T12:48:14.784Z,11.90
2022-12-03T12:50:46.713Z,12.75
2022-12-03T12:53:26.640Z,12.00
2022-12-03T12:56:02.305Z,12.18
2022-12-03T12:58:32.949Z,11.35
2022-12-03T13:01:04.433Z,12.55
2022-12-03T13:03:35.184Z,12.32
2022-12-03T13:06:02.974Z,11.40
2022-12-03T13:08:39.350Z,10.60
2022-12-03T13:11:10.445Z,10.82
2022-12-03T13:13:44.361Z,10.65
2022-12-03T13:16:23.583Z,10.68
2022-12-03T13:18:55.130Z,10.00
2022-12-03T13:21:37.532Z,10.07
2022-12-03T13:24:29.541Z,10.63
2022-12-03T13:26:57.127Z,9.82
2022-12-03T13:29:25.714Z,10.35
2022-12-03T13:32:01.911Z,10.15
2022-12-03T13:34:33.321Z,9.43
2022-12-03T13:37:01.713Z,9.43
2022-12-03T13:39:32.632Z,9.98
2022-12-03T13:42:27.100Z,9.18
2022-12-03T13:44:54.332Z,9.27
2022-12-03T13:47:23.663Z,9.02
2022-12-03T13:50:03.520Z,9.05
2022-12-03T13:52:34.043Z,9.55
2022-12-03T13:55:03.682Z,9.27
2022-12-03T13:57:30.441Z,9.23
2022-12-03T13:59:57.323Z,9.77
2022-12-03T14:02:24.458Z,10.43
2022-12-03T14:04:55.379Z,10.80
2022-12-03T14:07:25.342Z,10.10
2022-12-03T14:09:52.519Z,10.15
2022-12-03T14:12:33.590Z,9.25
2022-12-03T14:15:01.489Z,10.27
2022-12-03T14:17:28.785Z,9.70
2022-12-03T14:19:55.994Z,10.30
2022-12-03T14:22:25.279Z,9.32
2022-12-03T14:24:53.185Z,9.90
2022-12-03T14:27:20.981Z,10.15
2022-12-03T14:29:47.844Z,10.18
2022-12-03T14:32:15.056Z,9.93
2022-12-03T14:34:41.887Z,10.00
2022-12-03T14:37:08.706Z,10.65
2022-12-03T14:39:35.430Z,10.57
2022-12-03T14:42:14.131Z,10.65
2022-12-03T14:44:51.335Z,11.05
2022-12-03T14:47:22.604Z,10.52
2022-12-03T14:49:50.515Z,10.75
2022-12-03T14:52:18.637Z,11.63
2022-12-03T14:54:45.666Z,11.40
2022-12-03T14:57:13.814Z,11.65
2022-12-03T14:59:45.111Z,12.40
2022-12-03T15:02:12.896Z,11.85
2022-12-03T15:04:41.245Z,12.15
2022-12-03T15:07:09.041Z,12.65
2022-12-03T15:09:36.189Z,12.60
2022-12-03T15:12:04.048Z,12.25
2022-12-03T15:14:30.798Z,11.18
2022-12-03T15:16:57.758Z,12.25
2022-12-03T15:19:24.634Z,12.63
2022-12-03T15:21:51.742Z,12.85
2022-12-03T15:24:18.814Z,12.73
2022-12-03T15:26:45.638Z,13.38
2022-12-03T15:29:12.377Z,12.23
2022-12-03T15:31:39.166Z,13.70
2022-12-03T15:34:06.036Z,12.77
2022-12-03T15:36:32.760Z,12.63
2022-12-03T15:38:59.580Z,13.98
2022-12-03T15:41:29.576Z,14.75
2022-12-03T15:44:04.579Z,13.10
2022-12-03T15:46:31.777Z,13.57
2022-12-03T15:48:59.150Z,12.82
2022-12-03T15:51:25.903Z,12.68
2022-12-03T15:53:52.853Z,13.48
2022-12-03T15:56:19.644Z,13.02
2022-12-03T15:58:46.451Z,13.68
2022-12-03T16:01:14.109Z,13.77
2022-12-03T16:03:41.549Z,12.98
2022-12-03T16:06:08.591Z,13.48
2022-12-03T16:08:35.333Z,12.75
2022-12-03T16:11:02.046Z,13.35
2022-12-03T16:13:28.715Z,13.25
2022-12-03T16:15:55.451Z,13.10
2022-12-03T16:18:22.270Z,13.60
2022-12-03T16:20:49.454Z,13.93
2022-12-03T16:23:16.155Z,13.95
2022-12-03T16:25:42.870Z,13.40
2022-12-03T16:28:09.581Z,13.45
2022-12-03T16:30:36.601Z,13.80
2022-12-03T16:33:03.584Z,13.95
2022-12-03T16:35:30.611Z,13.82
2022-12-03T16:37:57.303Z,14.15
2022-12-03T16:40:24.107Z,13.60
2022-12-03T16:42:50.838Z,13.45
2022-12-03T16:45:40.749Z,14.63
2022-12-03T16:48:07.452Z,15.50
2022-12-03T16:50:37.168Z,15.77
2022-12-03T16:53:03.976Z,15.30
2022-12-03T16:55:30.749Z,14.70
2022-12-03T16:57:57.514Z,14.48
2022-12-03T17:00:25.980Z,15.07
2022-12-03T17:02:52.723Z,15.57
2022-12-03T17:05:19.614Z,15.90
2022-12-03T17:07:46.387Z,14.57
2022-12-03T17:10:13.281Z,14.60
2022-12-03T17:13:07.614Z,14.88
2022-12-03T17:15:26.804Z,14.85
2022-12-03T17:17:53.615Z,15.52
2022-12-03T17:20:20.340Z,16.50
2022-12-03T17:22:47.114Z,16.55
2022-12-03T17:25:14.039Z,16.80
2022-12-03T17:27:45.161Z,17.42
2022-12-03T17:30:13.502Z,19.02
2022-12-03T17:32:40.475Z,18.05
2022-12-03T17:35:08.224Z,19.52
2022-12-03T17:37:35.245Z,17.42
2022-12-03T17:40:02.475Z,18.52
2022-12-03T17:42:29.139Z,17.85
2022-12-03T17:44:55.863Z,17.95
2022-12-03T17:47:22.575Z,17.13
2022-12-03T17:49:49.257Z,17.73
2022-12-03T17:52:15.945Z,18.83
2022-12-03T17:55:08.930Z,18.45
2022-12-03T17:57:29.398Z,18.45
2022-12-03T17:59:56.686Z,18.70
2022-12-03T18:02:23.791Z,16.48
2022-12-03T18:04:50.551Z,16.50
2022-12-03T18:07:17.317Z,17.00
2022-12-03T18:09:44.036Z,17.33
2022-12-03T18:12:10.776Z,18.00
2022-12-03T18:14:37.439Z,18.00
2022-12-03T18:17:04.303Z,17.50
2022-12-03T18:19:31.038Z,18.08
2022-12-03T18:21:57.851Z,17.95
2022-12-03T18:24:25.210Z,17.65
2022-12-03T18:26:52.259Z,18.65
2022-12-03T18:29:19.047Z,17.55
2022-12-03T18:31:46.021Z,17.65
2022-12-03T18:34:12.865Z,17.70
2022-12-03T18:36:39.585Z,18.85
2022-12-03T18:39:12.418Z,18.80
2022-12-03T18:41:39.853Z,17.70
2022-12-03T18:44:10.462Z,19.00
2022-12-03T18:46:53.059Z,18.42
2022-12-03T18:49:20.947Z,18.35
2022-12-03T18:51:48.576Z,18.67
2022-12-03T18:54:15.753Z,18.50
2022-12-03T18:56:42.475Z,18.65
2022-12-03T18:59:09.492Z,17.85
2022-12-03T19:01:36.583Z,18.77
2022-12-03T19:04:03.780Z,19.98
2022-12-03T19:06:30.702Z,17.88
2022-12-03T19:08:57.586Z,17.85
2022-12-03T19:11:24.419Z,18.98
2022-12-03T19:13:51.836Z,18.67
2022-12-03T19:16:18.618Z,19.35
2022-12-03T19:18:45.463Z,19.58
2022-12-03T19:21:14.331Z,18.55
2022-12-03T19:23:47.231Z,19.88
2022-12-03T19:28:53.850Z,18.67
2022-12-03T19:31:21.146Z,19.08
2022-12-03T19:33:48.603Z,20.00
2022-12-03T19:36:24.437Z,18.60
2022-12-03T19:38:56.940Z,20.08
2022-12-03T19:41:27.392Z,19.15
2022-12-03T19:43:56.037Z,19.75
2022-12-03T19:46:24.834Z,20.17
2022-12-03T19:48:51.777Z,19.75
2022-12-03T19:51:35.414Z,19.08
2022-12-03T19:54:07.727Z,18.63
2022-12-03T19:56:35.024Z,19.60
2022-12-03T19:59:02.075Z,18.67
2022-12-03T20:01:31.708Z,20.00
2022-12-03T20:04:00.401Z,18.90
2022-12-03T20:06:30.225Z,19.80
2022-12-03T20:08:59.332Z,19.80
2022-12-03T20:11:31.759Z,20.00
2022-12-03T20:14:05.176Z,19.63
2022-12-03T20:16:32.165Z,19.27
2022-12-03T20:19:01.920Z,18.60
2022-12-03T20:21:33.988Z,18.88
2022-12-03T20:24:01.094Z,18.33
2022-12-03T20:26:28.667Z,18.10
2022-12-03T20:28:56.461Z,18.65
2022-12-03T20:31:28.797Z,18.27
2022-12-03T20:33:59.225Z,17.88
2022-12-03T20:36:28.695Z,16.17
2022-12-03T20:38:56.951Z,17.80
2022-12-03T20:41:24.317Z,17.27
2022-12-03T20:43:51.618Z,19.30
2022-12-03T20:46:27.259Z,17.52
2022-12-03T20:48:54.340Z,17.98
2022-12-03T20:51:24.376Z,18.05
2022-12-03T20:53:51.617Z,18.13
2022-12-03T20:56:24.601Z,18.15
2022-12-03T20:58:51.725Z,17.70
2022-12-03T21:01:21.661Z,18.15
2022-12-03T21:03:49.874Z,18.73
2022-12-03T21:06:17.255Z,18.63
2022-12-03T21:08:44.616Z,17.33
2022-12-03T21:11:14.823Z,17.38
2022-12-03T21:13:43.698Z,17.75
2022-12-03T21:16:14.886Z,17.15
2022-12-03T21:18:42.562Z,17.77
2022-12-03T21:21:11.887Z,17.80
2022-12-03T21:23:38.728Z,16.70
2022-12-03T21:26:11.681Z,17.98
2022-12-03T21:28:39.830Z,17.58
2022-12-03T21:31:09.155Z,17.98
2022-12-03T21:33:36.911Z,18.08
2022-12-03T21:36:04.839Z,18.50
2022-12-03T21:38:33.102Z,16.95
2022-12-03T21:41:00.451Z,17.35
2022-12-03T21:43:28.021Z,18.15
2022-12-03T21:45:54.810Z,17.40
2022-12-03T21:48:22.045Z,17.63
2022-12-03T21:51:03.348Z,17.50
2022-12-03T21:53:31.653Z,16.40
2022-12-03T21:55:59.818Z,18.35
2022-12-03T21:58:26.632Z,16.85
2022-12-03T22:00:53.389Z,16.02
2022-12-03T22:03:20.159Z,16.55
2022-12-03T22:05:46.891Z,18.05
2022-12-03T22:08:13.894Z,17.48
2022-12-03T22:10:40.920Z,17.67
2022-12-03T22:13:08.110Z,17.20
2022-12-03T22:15:35.141Z,16.70
2022-12-03T22:18:01.866Z,16.23
2022-12-03T22:20:28.556Z,15.90
2022-12-03T22:22:55.298Z,16.92
2022-12-03T22:25:22.226Z,15.77
2022-12-03T22:27:48.912Z,15.45
2022-12-03T22:30:15.977Z,15.43
2022-12-03T22:32:42.786Z,17.35
2022-12-03T22:35:09.793Z,15.57
2022-12-03T22:37:36.532Z,15.90
2022-12-03T22:40:03.621Z,17.15
2022-12-03T22:42:30.752Z,15.82
2022-12-03T22:44:57.500Z,15.85
2022-12-03T22:47:24.283Z,15.77
2022-12-03T22:49:51.208Z,15.88
2022-12-03T22:52:17.887Z,14.10
2022-12-03T22:54:45.477Z,13.93
2022-12-03T22:57:12.495Z,14.43
2022-12-03T22:59:39.179Z,13.15
2022-12-03T23:02:06.109Z,13.13
2022-12-03T23:04:32.831Z,12.85
2022-12-03T23:06:59.570Z,12.88
2022-12-03T23:09:26.330Z,14.68
2022-12-03T23:11:53.117Z,14.93
2022-12-03T23:14:19.803Z,15.57
2022-12-03T23:16:46.584Z,15.70
2022-12-03T23:19:13.962Z,14.57
2022-12-03T23:21:40.706Z,13.85
2022-12-03T23:24:07.818Z,13.45
2022-12-03T23:26:36.710Z,12.95
2022-12-03T23:29:05.517Z,14.10
2022-12-03T23:31:34.724Z,14.55
2022-12-03T23:34:02.033Z,13.25
2022-12-03T23:36:32.248Z,13.35
2022-12-03T23:38:59.024Z,13.25
2022-12-03T23:41:25.898Z,12.63
2022-12-03T23:43:52.915Z,12.73
2022-12-03T23:46:25.423Z,13.15
2022-12-03T23:48:53.502Z,12.98
2022-12-03T23:51:23.771Z,13.13
2022-12-03T23:53:52.985Z,12.77
2022-12-03T23:56:26.734Z,13.10
2022-12-03T23:58:53.552Z,13.25
